Time;durP1;ratioP1;P1;durP2;ratioP2;P2;SDS_P1;SDS_P2;PMS_P1;PMS_P2;Temp;Humidity;BMP_temperature;BMP_pressure;BME280_temperature;BME280_humidity;BME280_pressure;Samples;Min_cycle;Max_cycle;Signal;HPM_P1;HPM_P2
2022/02/12 00:02:09;;;;;;;8.48;2.30;;;4.30;99.50;;;;;;5078337;28;20071;-63
2022/02/12 00:04:36;;;;;;;11.77;3.10;;;4.40;99.50;;;;;;5075640;28;20914;-62
2022/02/12 00:07:03;;;;;;;11.98;2.53;;;4.30;99.30;;;;;;5080253;28;20044;-62
2022/02/12 00:09:30;;;;;;;7.22;2.20;;;4.30;99.30;;;;;;5074424;28;20524;-62
2022/02/12 00:11:57;;;;;;;11.55;3.40;;;4.40;99.40;;;;;;5077974;28;20461;-62
2022/02/12 00:14:23;;;;;;;10.05;3.30;;;4.30;99.40;;;;;;5073122;28;20086;-62
2022/02/12 00:16:50;;;;;;;7.95;2.88;;;4.30;99.40;;;;;;5075807;28;20078;-62
2022/02/12 00:19:17;;;;;;;9.45;2.88;;;4.30;99.40;;;;;;5076889;28;20048;-62
2022/02/12 00:21:44;;;;;;;12.80;2.38;;;4.40;99.50;;;;;;5078815;28;20051;-63
2022/02/12 00:24:11;;;;;;;11.45;2.42;;;4.40;99.50;;;;;;5076477;28;20487;-62
2022/02/12 00:26:38;;;;;;;7.53;2.95;;;4.30;99.40;;;;;;5079709;28;20052;-62
2022/02/12 00:29:04;;;;;;;11.35;2.47;;;4.30;99.50;;;;;;5081538;28;20469;-62
2022/02/12 00:31:31;;;;;;;12.30;2.92;;;4.30;99.40;;;;;;5084362;28;20074;-63
2022/02/12 00:33:58;;;;;;;7.50;3.08;;;4.30;99.40;;;;;;5084358;28;20051;-64
2022/02/12 00:36:25;;;;;;;15.38;2.65;;;4.30;99.50;;;;;;5081547;28;20075;-63
2022/02/12 00:38:52;;;;;;;7.70;2.08;;;4.20;99.50;;;;;;5083051;28;20091;-63
2022/02/12 00:41:18;;;;;;;8.35;2.08;;;4.20;99.40;;;;;;5080068;28;20040;-63
2022/02/12 00:43:45;;;;;;;14.70;2.85;;;4.20;99.50;;;;;;5085238;28;20074;-64
2022/02/12 00:46:12;;;;;;;13.73;3.15;;;4.20;99.40;;;;;;5074828;28;20139;-63
2022/02/12 00:48:39;;;;;;;8.52;2.10;;;4.20;99.30;;;;;;4731622;28;9999784;-63
2022/02/12 00:51:06;;;;;;;9.50;2.13;;;4.30;99.40;;;;;;5082077;28;20041;-63
2022/02/12 00:53:33;;;;;;;9.77;2.85;;;4.30;99.90;;;;;;5084621;28;20074;-63
2022/02/12 00:55:59;;;;;;;11.75;2.80;;;4.20;99.50;;;;;;5080580;28;20172;-62
2022/02/12 00:58:26;;;;;;;7.72;2.20;;;4.20;99.40;;;;;;5084095;28;20047;-61
2022/02/12 01:00:53;;;;;;;7.70;2.33;;;4.30;99.40;;;;;;5084150;28;20114;-62
2022/02/12 01:03:20;;;;;;;8.05;2.92;;;4.30;99.80;;;;;;5081334;28;20485;-62
2022/02/12 01:05:47;;;;;;;11.98;2.45;;;4.30;99.30;;;;;;5079665;28;20075;-61
2022/02/12 01:08:13;;;;;;;13.73;2.22;;;4.30;99.30;;;;;;5077523;28;20139;-62
2022/02/12 01:10:40;;;;;;;11.02;2.53;;;4.30;99.30;;;;;;5082482;28;20385;-63
2022/02/12 01:13:07;;;;;;;8.93;1.88;;;4.30;99.30;;;;;;5078861;28;20040;-64
2022/02/12 01:15:34;;;;;;;8.05;2.25;;;4.30;99.40;;;;;;5086778;28;20076;-62
2022/02/12 01:18:01;;;;;;;8.07;2.13;;;4.20;99.40;;;;;;5084078;28;20050;-66
2022/02/12 01:20:28;;;;;;;15.10;2.05;;;4.20;99.50;;;;;;5083765;28;20086;-62
2022/02/12 01:22:55;;;;;;;5.53;1.70;;;4.20;99.50;;;;;;5083328;28;20044;-66
2022/02/12 01:25:22;;;;;;;9.60;1.50;;;4.30;99.50;;;;;;5090972;28;20097;-62
2022/02/12 01:27:49;;;;;;;13.52;1.77;;;4.20;99.50;;;;;;5092909;28;20101;-62
2022/02/12 01:30:17;;;;;;;8.13;1.45;;;4.20;99.40;;;;;;5089586;28;20464;-63
2022/02/12 01:32:44;;;;;;;5.35;1.45;;;4.20;99.50;;;;;;5088416;28;20090;-63
2022/02/12 01:35:12;;;;;;;5.95;1.30;;;4.10;99.60;;;;;;5088549;28;20076;-63
2022/02/12 01:37:39;;;;;;;9.27;2.10;;;4.10;99.60;;;;;;5090404;28;20055;-62
2022/02/12 01:40:06;;;;;;;5.47;1.70;;;4.10;99.80;;;;;;5088773;28;20384;-62
2022/02/12 01:42:33;;;;;;;4.00;1.13;;;4.20;99.70;;;;;;5089463;28;20076;-63
2022/02/12 01:45:01;;;;;;;7.55;1.45;;;4.30;99.70;;;;;;5090147;28;20074;-62
2022/02/12 01:47:28;;;;;;;10.77;2.35;;;4.20;99.60;;;;;;5090665;28;20075;-62
2022/02/12 01:49:55;;;;;;;7.13;1.60;;;4.20;99.70;;;;;;5091417;28;20048;-62
2022/02/12 01:52:22;;;;;;;13.52;1.92;;;4.20;99.90;;;;;;5091190;28;20554;-63
2022/02/12 01:54:49;;;;;;;6.88;2.60;;;4.20;99.90;;;;;;5090539;28;20106;-63
2022/02/12 01:57:16;;;;;;;12.07;2.72;;;4.20;99.90;;;;;;5088958;28;20063;-65
2022/02/12 01:59:43;;;;;;;7.28;1.33;;;4.30;99.80;;;;;;5090162;28;20071;-65
2022/02/12 02:02:10;;;;;;;11.85;2.00;;;4.30;99.90;;;;;;5088226;28;20121;-62
2022/02/12 02:04:39;;;;;;;5.20;1.70;;;4.30;99.90;;;;;;5089792;28;20044;-62
2022/02/12 02:07:06;;;;;;;13.05;2.50;;;4.40;99.90;;;;;;5068881;28;20135;-63
2022/02/12 02:09:32;;;;;;;5.82;1.63;;;4.40;99.80;;;;;;5089872;28;20193;-62
2022/02/12 02:11:59;;;;;;;3.15;1.13;;;4.30;99.80;;;;;;5077757;28;20078;-63
2022/02/12 02:14:34;;;;;;;8.00;1.38;;;4.40;99.80;;;;;;5084020;28;20105;-62
2022/02/12 02:17:01;;;;;;;9.15;1.40;;;4.40;99.80;;;;;;5087989;28;20510;-62
2022/02/12 02:19:30;;;;;;;6.82;1.67;;;4.40;99.80;;;;;;5088560;28;20078;-62
2022/02/12 02:21:57;;;;;;;8.95;1.42;;;4.40;99.80;;;;;;5089992;28;20097;-62
2022/02/12 02:24:24;;;;;;;7.10;1.50;;;4.40;99.80;;;;;;5073787;28;20109;-62
2022/02/12 02:26:51;;;;;;;6.00;1.55;;;4.50;99.90;;;;;;5088735;28;20165;-63
2022/02/12 02:29:18;;;;;;;12.57;2.05;;;4.40;99.90;;;;;;5090245;28;20040;-62
2022/02/12 02:31:45;;;;;;;14.80;1.80;;;4.50;99.90;;;;;;5090489;28;20666;-62
2022/02/12 02:34:12;;;;;;;11.05;1.77;;;4.40;99.90;;;;;;5090616;28;20083;-62
2022/02/12 02:36:39;;;;;;;9.20;2.65;;;4.40;99.90;;;;;;5088267;28;20097;-62
2022/02/12 02:39:06;;;;;;;7.72;1.50;;;4.50;99.90;;;;;;5091554;28;20076;-63
2022/02/12 02:41:32;;;;;;;5.15;1.40;;;4.50;99.90;;;;;;5090673;28;20056;-63
2022/02/12 02:43:59;;;;;;;4.93;1.50;;;4.50;99.90;;;;;;5091777;28;20078;-63
2022/02/12 02:46:26;;;;;;;4.43;1.55;;;4.50;99.90;;;;;;5086313;28;20055;-63
2022/02/12 02:48:53;;;;;;;8.07;1.55;;;4.50;99.90;;;;;;5091518;28;20127;-63
2022/02/12 02:56:50;;;;;;;9.98;1.67;;;4.50;99.90;;;;;;5083001;28;20119;-64
2022/02/12 02:59:17;;;;;;;21.30;4.15;;;4.50;99.90;;;;;;5091271;28;20108;-63
2022/02/12 03:01:45;;;;;;;11.90;1.92;;;4.50;99.90;;;;;;5090418;28;20436;-63
2022/02/12 03:04:12;;;;;;;10.27;2.22;;;4.60;99.90;;;;;;5090691;28;20052;-63
2022/02/12 03:06:38;;;;;;;5.88;1.50;;;4.40;99.90;;;;;;5090591;28;20071;-63
2022/02/12 03:09:05;;;;;;;3.72;1.20;;;4.60;99.90;;;;;;5090968;28;20090;-63
2022/02/12 03:11:32;;;;;;;9.23;1.48;;;4.40;99.90;;;;;;5090704;28;20877;-64
2022/02/12 03:13:59;;;;;;;10.10;2.28;;;4.40;99.90;;;;;;5090512;28;20463;-63
2022/02/12 03:16:25;;;;;;;11.73;1.80;;;4.50;99.90;;;;;;5085312;28;20551;-63
2022/02/12 03:18:52;;;;;;;12.60;2.67;;;4.40;99.90;;;;;;5090506;28;20105;-63
2022/02/12 03:21:19;;;;;;;10.63;2.05;;;4.30;99.90;;;;;;5089715;28;20597;-63
2022/02/12 03:23:46;;;;;;;10.63;3.13;;;4.40;99.90;;;;;;5090031;28;20075;-63
2022/02/12 03:26:13;;;;;;;6.72;1.75;;;4.40;99.90;;;;;;5090531;28;20071;-63
2022/02/12 03:28:40;;;;;;;9.23;1.75;;;4.40;99.90;;;;;;5090054;28;20047;-63
2022/02/12 03:31:07;;;;;;;12.30;1.90;;;4.40;99.90;;;;;;5057421;28;20436;-63
2022/02/12 03:33:33;;;;;;;5.97;1.42;;;4.50;99.90;;;;;;5089290;28;20709;-63
2022/02/12 03:36:00;;;;;;;7.53;1.58;;;4.50;99.90;;;;;;5090703;28;20131;-63
2022/02/12 03:38:29;;;;;;;7.07;1.30;;;4.50;99.90;;;;;;5090448;28;20044;-63
2022/02/12 03:40:58;;;;;;;10.13;2.05;;;4.60;99.90;;;;;;5090471;28;20044;-63
2022/02/12 03:43:25;;;;;;;6.00;1.42;;;4.60;99.90;;;;;;5089688;28;20040;-63
2022/02/12 03:45:53;;;;;;;8.80;2.13;;;4.50;99.90;;;;;;5089855;28;20052;-63
2022/02/12 03:48:23;;;;;;;8.20;1.98;;;4.60;99.90;;;;;;5090126;28;20060;-63
2022/02/12 03:50:52;;;;;;;6.43;2.35;;;4.60;99.90;;;;;;5090684;28;20530;-63
2022/02/12 03:53:19;;;;;;;13.18;2.00;;;4.60;99.90;;;;;;5089933;28;20109;-63
2022/02/12 03:55:46;;;;;;;15.98;2.20;;;4.60;99.90;;;;;;5090373;28;20080;-63
2022/02/12 03:58:14;;;;;;;9.68;1.73;;;4.70;99.90;;;;;;5090168;28;20044;-63
2022/02/12 04:00:42;;;;;;;11.15;2.80;;;4.70;99.90;;;;;;5090298;28;20127;-63
2022/02/12 04:03:09;;;;;;;7.50;2.00;;;4.70;99.90;;;;;;5087213;28;20044;-63
2022/02/12 04:05:36;;;;;;;6.88;1.60;;;4.70;99.90;;;;;;5089822;28;20079;-62
2022/02/12 04:08:03;;;;;;;6.18;1.80;;;4.80;99.90;;;;;;5091799;28;20052;-63
2022/02/12 04:10:30;;;;;;;9.27;2.00;;;4.80;99.90;;;;;;5089287;28;20040;-63
2022/02/12 04:12:58;;;;;;;4.18;1.70;;;4.70;99.90;;;;;;5091581;28;20482;-63
2022/02/12 04:15:25;;;;;;;9.13;1.33;;;5.10;99.90;;;;;;5092772;28;20071;-63
2022/02/12 04:17:52;;;;;;;18.70;2.70;;;4.80;99.90;;;;;;5094088;28;20076;-64
2022/02/12 04:20:22;;;;;;;6.68;1.98;;;4.80;99.90;;;;;;5094139;28;20044;-63
2022/02/12 04:22:49;;;;;;;11.23;2.13;;;4.90;99.90;;;;;;5092675;28;20072;-63
2022/02/12 04:25:17;;;;;;;7.22;2.38;;;4.90;99.90;;;;;;5092371;28;20098;-63
2022/02/12 04:27:44;;;;;;;10.45;3.10;;;4.90;99.90;;;;;;5084860;28;20380;-63
2022/02/12 04:30:12;;;;;;;11.05;2.45;;;4.90;99.90;;;;;;5094785;28;20090;-63
2022/02/12 04:32:39;;;;;;;5.53;2.00;;;4.90;99.90;;;;;;5099731;28;20068;-63
2022/02/12 04:35:07;;;;;;;13.80;3.17;;;4.90;99.90;;;;;;5097180;28;20048;-63
2022/02/12 04:37:34;;;;;;;11.45;2.70;;;4.90;99.90;;;;;;5084306;28;20415;-63
2022/02/12 04:40:00;;;;;;;19.00;4.47;;;4.90;99.90;;;;;;5086718;28;20072;-63
2022/02/12 04:42:29;;;;;;;6.75;1.58;;;5.00;99.90;;;;;;5093247;28;20047;-63
2022/02/12 04:44:56;;;;;;;8.82;2.20;;;5.00;99.90;;;;;;5093060;28;20044;-63
2022/02/12 04:47:23;;;;;;;6.47;1.88;;;5.00;99.90;;;;;;5093305;28;20051;-63
2022/02/12 04:49:50;;;;;;;8.23;1.73;;;5.10;99.90;;;;;;5092904;28;20131;-63
2022/02/12 04:52:18;;;;;;;13.75;2.20;;;5.00;99.90;;;;;;5085995;28;20048;-63
2022/02/12 04:54:45;;;;;;;9.60;1.73;;;5.00;99.90;;;;;;5092801;28;20076;-63
2022/02/12 04:57:12;;;;;;;9.23;2.47;;;5.00;99.90;;;;;;5093768;28;20137;-63
2022/02/12 04:59:39;;;;;;;11.38;2.70;;;5.00;99.90;;;;;;5093201;28;20056;-63
2022/02/12 05:02:06;;;;;;;9.60;1.98;;;5.00;99.90;;;;;;5093607;28;20067;-63
2022/02/12 05:04:34;;;;;;;7.88;1.58;;;5.00;99.90;;;;;;5092161;28;20578;-63
2022/02/12 05:07:01;;;;;;;5.72;2.00;;;5.10;99.90;;;;;;5092294;28;20090;-63
2022/02/12 05:09:27;;;;;;;13.30;2.65;;;5.10;99.90;;;;;;5063192;28;20560;-62
2022/02/12 05:11:54;;;;;;;6.50;1.83;;;5.10;99.90;;;;;;5092972;28;20040;-62
2022/02/12 05:14:21;;;;;;;8.48;2.13;;;5.00;99.90;;;;;;5093493;28;20048;-62
2022/02/12 05:16:48;;;;;;;13.73;3.17;;;5.00;99.90;;;;;;5092679;28;20043;-62
2022/02/12 05:19:15;;;;;;;11.82;3.45;;;5.10;99.90;;;;;;5092332;28;20168;-62
2022/02/12 05:21:42;;;;;;;6.82;2.00;;;5.00;99.90;;;;;;5091451;28;20473;-62
2022/02/12 05:24:09;;;;;;;5.63;1.73;;;5.00;99.90;;;;;;5092652;28;20082;-62
2022/02/12 05:26:35;;;;;;;7.50;2.03;;;5.00;99.90;;;;;;5091331;28;20040;-62
2022/02/12 05:29:03;;;;;;;16.63;3.05;;;5.00;99.90;;;;;;5092719;28;20048;-62
2022/02/12 05:31:29;;;;;;;10.75;2.92;;;5.00;99.90;;;;;;5074324;28;20043;-62
2022/02/12 05:33:56;;;;;;;10.73;1.67;;;5.00;99.90;;;;;;5092555;28;20048;-62
2022/02/12 05:36:23;;;;;;;12.77;2.42;;;4.90;99.90;;;;;;5093109;28;20079;-61
2022/02/12 05:38:50;;;;;;;12.20;2.75;;;5.00;99.90;;;;;;5085913;28;20058;-62
2022/02/12 05:41:17;;;;;;;11.63;2.38;;;4.90;99.90;;;;;;5094744;28;20080;-62
2022/02/12 05:43:44;;;;;;;7.38;2.00;;;4.90;99.90;;;;;;5095254;28;20051;-62
2022/02/12 05:46:11;;;;;;;11.85;2.38;;;5.00;99.90;;;;;;5095093;28;20145;-62
2022/02/12 05:48:38;;;;;;;15.55;4.13;;;5.00;99.90;;;;;;5094837;28;20438;-62
2022/02/12 05:51:05;;;;;;;6.35;1.83;;;5.00;99.90;;;;;;5094951;28;20072;-62
2022/02/12 05:53:32;;;;;;;8.95;2.40;;;4.90;99.90;;;;;;5092937;28;20507;-63
2022/02/12 05:55:59;;;;;;;11.45;2.30;;;4.90;99.90;;;;;;5092148;28;20135;-62
2022/02/12 05:58:26;;;;;;;6.53;2.00;;;5.00;99.90;;;;;;5091943;28;20297;-62
2022/02/12 06:00:53;;;;;;;6.93;2.13;;;5.00;99.90;;;;;;5092361;28;20123;-62
2022/02/12 06:03:19;;;;;;;11.13;1.88;;;5.00;99.90;;;;;;5091551;28;20101;-62
2022/02/12 06:05:46;;;;;;;6.50;2.00;;;5.00;99.90;;;;;;5090872;28;20084;-62
2022/02/12 06:08:13;;;;;;;10.05;2.17;;;5.00;99.90;;;;;;5089828;28;20079;-62
2022/02/12 06:10:44;;;;;;;7.20;2.38;;;5.00;99.90;;;;;;5090882;28;20071;-62
2022/02/12 06:13:11;;;;;;;11.27;2.72;;;5.10;99.90;;;;;;5091739;28;20078;-62
2022/02/12 06:15:38;;;;;;;10.70;2.80;;;5.00;99.90;;;;;;5091692;28;20040;-61
2022/02/12 06:18:05;;;;;;;9.13;2.63;;;4.90;99.90;;;;;;5091500;28;20117;-62
2022/02/12 06:20:32;;;;;;;10.98;2.10;;;5.00;99.90;;;;;;5073567;28;20052;-62
2022/02/12 06:22:59;;;;;;;12.45;2.83;;;5.00;99.90;;;;;;5091703;28;20074;-62
2022/02/12 06:25:26;;;;;;;7.95;2.33;;;5.00;99.90;;;;;;5091596;28;20144;-62
2022/02/12 06:27:53;;;;;;;18.85;2.47;;;4.90;99.90;;;;;;5091518;28;20068;-62
2022/02/12 06:30:20;;;;;;;14.98;2.70;;;4.80;99.90;;;;;;5091311;28;20093;-63
2022/02/12 06:32:46;;;;;;;14.73;3.05;;;4.90;99.90;;;;;;5091625;28;20040;-62
2022/02/12 06:35:13;;;;;;;14.25;2.22;;;4.80;99.90;;;;;;5090891;28;20082;-62
2022/02/12 06:37:40;;;;;;;12.10;1.67;;;4.90;99.90;;;;;;5090567;28;20078;-63
2022/02/12 06:40:07;;;;;;;14.07;3.45;;;5.00;99.90;;;;;;5091575;28;20479;-62
2022/02/12 06:42:34;;;;;;;9.20;2.40;;;4.80;99.90;;;;;;5091470;28;20083;-63
2022/02/12 06:45:01;;;;;;;17.20;3.92;;;4.80;99.90;;;;;;5086871;28;20134;-62
2022/02/12 06:47:27;;;;;;;4.28;1.80;;;4.80;99.90;;;;;;5089848;28;20079;-63
2022/02/12 06:49:54;;;;;;;9.80;1.98;;;4.80;99.90;;;;;;5091189;28;20473;-62
2022/02/12 06:52:21;;;;;;;11.95;2.45;;;5.10;99.90;;;;;;5091099;28;20535;-62
2022/02/12 06:54:48;;;;;;;20.98;2.63;;;4.80;99.90;;;;;;5090603;28;20556;-63
2022/02/12 06:57:14;;;;;;;13.48;3.17;;;4.70;99.90;;;;;;5090571;28;20599;-62
2022/02/12 06:59:43;;;;;;;13.85;2.30;;;4.80;99.90;;;;;;5090902;28;20157;-62
2022/02/12 07:02:09;;;;;;;9.50;2.38;;;4.80;99.90;;;;;;5091048;28;20514;-62
2022/02/12 07:04:36;;;;;;;11.27;2.55;;;4.80;99.90;;;;;;5090763;28;20677;-62
2022/02/12 07:07:03;;;;;;;14.98;3.00;;;4.80;99.90;;;;;;5090605;28;20079;-62
2022/02/12 07:09:30;;;;;;;12.55;2.13;;;4.80;99.90;;;;;;5090495;28;20135;-62
2022/02/12 07:11:57;;;;;;;10.52;3.20;;;4.80;99.90;;;;;;5086373;28;20048;-62
2022/02/12 07:14:24;;;;;;;9.25;2.50;;;4.80;99.90;;;;;;5082442;28;20090;-62
2022/02/12 07:16:51;;;;;;;10.52;2.78;;;5.20;99.90;;;;;;5090757;28;20085;-62
2022/02/12 07:19:18;;;;;;;5.47;1.98;;;4.80;99.90;;;;;;5090001;28;20040;-62
2022/02/12 07:21:45;;;;;;;11.82;3.75;;;4.80;99.90;;;;;;5090926;28;20052;-62
2022/02/12 07:24:11;;;;;;;5.80;2.08;;;4.80;99.90;;;;;;5089062;28;20135;-63
2022/02/12 07:26:38;;;;;;;18.38;3.75;;;4.90;99.90;;;;;;5091728;28;20086;-62
2022/02/12 07:29:05;;;;;;;10.63;3.50;;;4.90;99.90;;;;;;5092135;28;20815;-62
2022/02/12 07:31:33;;;;;;;12.73;2.28;;;4.90;99.90;;;;;;5086496;28;20048;-62
2022/02/12 07:34:00;;;;;;;20.77;3.67;;;4.90;99.90;;;;;;5088999;28;20445;-62
2022/02/12 07:36:26;;;;;;;5.95;2.20;;;4.80;99.90;;;;;;5088829;28;20044;-62
2022/02/12 07:38:53;;;;;;;10.32;2.70;;;4.80;99.90;;;;;;5091683;28;20044;-62
2022/02/12 07:41:20;;;;;;;14.05;2.65;;;4.90;99.90;;;;;;5091044;28;20096;-62
2022/02/12 07:43:47;;;;;;;14.50;2.90;;;4.90;99.90;;;;;;5094743;28;20044;-62
2022/02/12 07:46:14;;;;;;;7.78;2.85;;;4.90;99.90;;;;;;5092871;28;20083;-62
2022/02/12 07:48:43;;;;;;;4.47;1.83;;;4.90;99.90;;;;;;5090859;28;20129;-61
2022/02/12 07:51:12;;;;;;;11.32;2.45;;;5.00;99.90;;;;;;5090940;28;20059;-63
2022/02/12 07:53:38;;;;;;;21.08;2.50;;;4.90;99.90;;;;;;5090918;28;20044;-62
2022/02/12 07:56:05;;;;;;;9.30;2.92;;;4.80;99.90;;;;;;5090201;28;20068;-62
2022/02/12 07:58:38;;;;;;;15.45;2.60;;;4.90;99.90;;;;;;5090032;28;20048;-62
2022/02/12 08:01:05;;;;;;;8.20;2.28;;;4.90;99.90;;;;;;5088945;28;20456;-62
2022/02/12 08:03:32;;;;;;;13.75;3.03;;;5.00;99.90;;;;;;5090344;28;20498;-62
2022/02/12 08:05:58;;;;;;;13.07;3.25;;;5.20;99.90;;;;;;5087879;28;20208;-62
2022/02/12 08:08:25;;;;;;;10.52;2.15;;;5.10;99.90;;;;;;5088594;28;20044;-62
2022/02/12 08:13:37;;;;;;;6.88;2.13;;;5.20;99.90;;;;;;5084461;28;20498;-63
2022/02/12 08:16:05;;;;;;;16.20;2.95;;;5.30;99.90;;;;;;5084264;28;20071;-62
2022/02/12 08:18:31;;;;;;;7.75;1.95;;;5.30;99.90;;;;;;5083956;28;20130;-62
2022/02/12 08:20:58;;;;;;;7.35;2.20;;;5.40;99.90;;;;;;5084796;28;20206;-63
2022/02/12 08:23:25;;;;;;;10.55;2.50;;;5.40;99.90;;;;;;5085330;28;20095;-62
2022/02/12 08:25:52;;;;;;;18.77;2.17;;;5.50;99.90;;;;;;5089511;28;20044;-63
2022/02/12 08:28:19;;;;;;;11.10;2.13;;;5.60;99.90;;;;;;5088987;28;20090;-65
2022/02/12 08:30:45;;;;;;;11.68;3.20;;;5.60;99.90;;;;;;5086837;28;20044;-62
2022/02/12 08:33:12;;;;;;;7.93;2.45;;;5.70;99.80;;;;;;5087316;28;20123;-62
2022/02/12 08:35:55;;;;;;;7.75;3.35;;;5.80;99.70;;;;;;5083082;28;20411;-62
2022/02/12 08:38:22;;;;;;;9.27;2.13;;;5.80;99.50;;;;;;5086468;28;20464;-62
2022/02/12 08:40:49;;;;;;;15.50;3.05;;;5.90;99.50;;;;;;5088610;28;20143;-62
2022/02/12 08:43:16;;;;;;;13.27;2.08;;;6.00;99.10;;;;;;5087968;28;20127;-62
2022/02/12 08:45:43;;;;;;;14.55;3.67;;;6.10;99.30;;;;;;5086744;28;20091;-66
2022/02/12 08:48:10;;;;;;;11.55;2.00;;;6.10;99.20;;;;;;5087424;28;20047;-63
2022/02/12 08:50:37;;;;;;;10.57;2.85;;;6.20;99.10;;;;;;5063558;28;20124;-63
2022/02/12 08:53:05;;;;;;;11.27;2.20;;;6.20;98.90;;;;;;5086970;28;20159;-63
2022/02/12 08:55:32;;;;;;;10.77;3.28;;;6.30;99.00;;;;;;5091054;28;20540;-64
2022/02/12 08:57:59;;;;;;;22.05;5.55;;;6.40;98.70;;;;;;5088254;28;20044;-63
2022/02/12 09:00:25;;;;;;;14.15;2.45;;;6.40;98.40;;;;;;5091877;28;20076;-63
2022/02/12 09:03:10;;;;;;;;;;;6.50;98.40;;;;;;5084737;28;20392;-63
2022/02/12 09:05:36;;;;;;;8.95;2.85;;;6.50;97.30;;;;;;5091006;28;19999;-63
2022/02/12 09:08:03;;;;;;;18.27;2.15;;;6.50;97.50;;;;;;5091083;28;20097;-63
2022/02/12 09:10:30;;;;;;;10.98;1.88;;;6.60;97.70;;;;;;5090304;28;20087;-63
2022/02/12 09:12:57;;;;;;;9.05;2.33;;;6.60;98.30;;;;;;5089912;28;20075;-62
2022/02/12 09:15:24;;;;;;;8.93;3.13;;;6.70;97.90;;;;;;5089028;28;20052;-64
2022/02/12 09:17:51;;;;;;;11.43;2.55;;;6.70;97.80;;;;;;5086402;28;20047;-63
2022/02/12 09:20:18;;;;;;;14.05;2.20;;;6.80;97.50;;;;;;5085737;28;20348;-64
2022/02/12 09:22:45;;;;;;;18.90;3.17;;;6.80;97.10;;;;;;5083338;28;20086;-63
2022/02/12 09:25:12;;;;;;;13.75;2.47;;;6.80;97.30;;;;;;5084631;28;20048;-63
2022/02/12 09:27:39;;;;;;;7.90;2.20;;;6.90;97.60;;;;;;5079804;28;20047;-63
2022/02/12 09:30:07;;;;;;;8.00;2.00;;;6.90;97.30;;;;;;5066317;28;20044;-63
2022/02/12 09:32:34;;;;;;;18.10;1.80;;;6.90;97.20;;;;;;5079923;28;20071;-63
2022/02/12 09:35:01;;;;;;;6.32;2.13;;;7.00;96.90;;;;;;5090982;28;20388;-64
2022/02/12 09:37:28;;;;;;;13.32;2.28;;;7.00;96.80;;;;;;5087069;28;20376;-63
2022/02/12 09:39:54;;;;;;;13.48;4.32;;;7.00;96.30;;;;;;5083423;28;20487;-63
2022/02/12 09:42:21;;;;;;;20.20;2.78;;;7.10;97.00;;;;;;5082885;28;20105;-62
2022/02/12 09:44:48;;;;;;;9.10;2.10;;;7.20;97.20;;;;;;5082054;28;20135;-63
2022/02/12 09:47:29;;;;;;;12.38;2.35;;;7.20;96.50;;;;;;5083801;28;20065;-63
2022/02/12 09:49:56;;;;;;;8.90;1.83;;;7.20;96.00;;;;;;5083686;28;20418;-63
2022/02/12 09:52:24;;;;;;;9.68;2.53;;;7.20;96.50;;;;;;5089647;28;20097;-63
2022/02/12 09:54:51;;;;;;;12.35;2.95;;;7.30;96.60;;;;;;5084025;28;20047;-63
2022/02/12 09:57:18;;;;;;;10.20;2.20;;;7.30;96.00;;;;;;5089579;28;20131;-63
2022/02/12 09:59:44;;;;;;;13.23;2.65;;;7.30;96.70;;;;;;5088443;28;20064;-63
2022/02/12 10:02:18;;;;;;;19.27;2.50;;;7.40;96.70;;;;;;5089056;28;20503;-62
2022/02/12 10:04:44;;;;;;;8.73;1.83;;;7.40;96.40;;;;;;5085037;28;20044;-63
2022/02/12 10:07:25;;;;;;;10.68;2.17;;;7.50;96.20;;;;;;5082981;28;20048;-62
2022/02/12 10:10:12;;;;;;;9.30;1.88;;;7.50;96.20;;;;;;5090378;28;20534;-64
2022/02/12 10:12:39;;;;;;;7.03;2.28;;;7.50;95.90;;;;;;5077499;28;20045;-64
2022/02/12 10:15:26;;;;;;;12.02;2.47;;;7.50;96.10;;;;;;5082172;28;20127;-63
2022/02/12 10:17:54;;;;;;;11.25;3.10;;;7.50;95.10;;;;;;5082947;28;20396;-64
2022/02/12 10:20:33;;;;;;;8.18;1.70;;;7.50;95.20;;;;;;5083668;28;20036;-63
2022/02/12 10:23:12;;;;;;;11.55;2.35;;;7.40;95.00;;;;;;5083442;28;20089;-63
2022/02/12 10:25:41;;;;;;;10.13;2.28;;;7.40;93.50;;;;;;5088019;28;20694;-63
2022/02/12 10:28:08;;;;;;;9.10;2.08;;;7.40;94.30;;;;;;5085062;28;20142;-64
2022/02/12 10:30:35;;;;;;;11.52;2.35;;;7.30;93.90;;;;;;5088079;28;20044;-64
2022/02/12 10:33:04;;;;;;;5.18;1.55;;;7.30;93.70;;;;;;5088884;28;20183;-63
2022/02/12 10:35:31;;;;;;;16.10;2.63;;;7.30;93.70;;;;;;5078792;28;20105;-63
2022/02/12 10:38:03;;;;;;;13.23;1.65;;;7.30;93.90;;;;;;5081249;28;20040;-63
2022/02/12 10:40:32;;;;;;;12.55;2.38;;;7.30;93.10;;;;;;5080669;28;20059;-64
2022/02/12 10:42:59;;;;;;;9.98;2.78;;;7.30;92.80;;;;;;5089137;28;20586;-64
2022/02/12 10:45:27;;;;;;;10.15;2.00;;;7.30;93.30;;;;;;5087861;28;20094;-65
2022/02/12 10:47:54;;;;;;;10.85;2.33;;;7.40;93.90;;;;;;5087859;28;20067;-63
2022/02/12 10:50:29;;;;;;;19.40;1.95;;;7.40;93.50;;;;;;5086157;28;20094;-63
2022/02/12 10:53:00;;;;;;;7.25;2.40;;;7.50;93.80;;;;;;5082776;28;20048;-64
2022/02/12 10:55:35;;;;;;;15.70;2.72;;;7.60;92.80;;;;;;5085086;28;20055;-63
2022/02/12 10:58:09;;;;;;;10.43;2.72;;;7.70;93.80;;;;;;5088840;28;20043;-64
2022/02/12 11:00:38;;;;;;;8.82;2.45;;;7.70;93.30;;;;;;5088450;28;20048;-63
2022/02/12 11:03:08;;;;;;;14.30;3.50;;;7.70;93.80;;;;;;5054843;28;20048;-63
2022/02/12 11:05:36;;;;;;;4.75;2.40;;;7.80;93.50;;;;;;5077622;28;20045;-64
2022/02/12 11:08:04;;;;;;;6.20;2.17;;;7.70;93.40;;;;;;5079820;28;20118;-64
2022/02/12 11:10:31;;;;;;;11.80;2.78;;;7.70;93.50;;;;;;5088925;28;20047;-64
2022/02/12 11:12:58;;;;;;;13.02;3.28;;;7.60;93.20;;;;;;5079490;28;20071;-64
2022/02/12 11:15:29;;;;;;;18.23;2.33;;;7.60;93.40;;;;;;5083541;28;20040;-64
2022/02/12 11:18:08;;;;;;;9.65;2.53;;;7.70;93.30;;;;;;5086321;28;20044;-64
2022/02/12 11:20:35;;;;;;;17.92;4.28;;;7.60;92.90;;;;;;5082412;28;20412;-64
2022/02/12 11:23:24;;;;;;;5.35;1.83;;;7.70;92.30;;;;;;5082044;28;20075;-64
2022/02/12 11:25:52;;;;;;;10.15;2.20;;;7.60;91.40;;;;;;5084849;28;20084;-63
2022/02/12 11:28:25;;;;;;;11.48;3.13;;;7.60;92.70;;;;;;5085709;28;20063;-64
2022/02/12 11:31:16;;;;;;;8.00;2.67;;;7.50;91.60;;;;;;5085008;28;20105;-63
2022/02/12 11:34:01;;;;;;;9.27;2.15;;;7.50;89.30;;;;;;5089041;28;20101;-63
2022/02/12 11:36:28;;;;;;;8.55;2.00;;;7.40;89.70;;;;;;5083103;28;20317;-64
2022/02/12 11:39:07;;;;;;;15.27;2.33;;;7.40;91.80;;;;;;5085559;28;20380;-63
2022/02/12 11:41:34;;;;;;;11.07;2.47;;;7.40;90.90;;;;;;5084777;28;20047;-63
2022/02/12 11:44:01;;;;;;;9.60;2.00;;;7.40;92.20;;;;;;5086721;28;20051;-64
2022/02/12 11:46:49;;;;;;;9.30;2.22;;;7.40;92.10;;;;;;5087241;28;20418;-63
2022/02/12 11:49:31;;;;;;;7.88;2.58;;;7.40;90.20;;;;;;5089650;28;20048;-64
2022/02/12 11:52:01;;;;;;;9.90;2.35;;;7.40;91.40;;;;;;5087173;28;20087;-64
2022/02/12 11:54:47;;;;;;;7.00;1.85;;;7.50;91.00;;;;;;5092583;28;20102;-63
2022/02/12 11:57:25;;;;;;;9.85;2.60;;;7.60;89.90;;;;;;5092468;28;20050;-64
2022/02/12 12:00:01;;;;;;;11.55;2.28;;;7.70;90.10;;;;;;5092529;28;20098;-63
2022/02/12 12:02:48;;;;;;;8.20;1.77;;;7.70;86.80;;;;;;5090479;28;20071;-64
2022/02/12 12:05:23;;;;;;;5.43;1.58;;;7.70;87.60;;;;;;5090386;28;20063;-63
2022/02/12 12:08:11;;;;;;;13.50;1.80;;;7.80;89.70;;;;;;5094079;28;20045;-63
2022/02/12 12:10:48;;;;;;;9.27;2.10;;;7.80;88.50;;;;;;4731513;28;10000196;-64
2022/02/12 12:13:20;;;;;;;10.20;3.90;;;7.80;85.90;;;;;;5090453;28;20048;-64
2022/02/12 12:15:51;;;;;;;9.05;3.03;;;7.80;89.10;;;;;;5090409;28;20048;-64
2022/02/12 12:18:18;;;;;;;15.27;2.50;;;7.90;86.80;;;;;;5089933;28;20089;-64
2022/02/12 12:20:45;;;;;;;7.38;1.90;;;7.90;87.30;;;;;;5087904;28;20456;-62
2022/02/12 12:23:14;;;;;;;7.35;2.05;;;8.00;87.90;;;;;;5065663;28;20052;-63
2022/02/12 12:26:06;;;;;;;8.50;2.00;;;8.10;90.20;;;;;;5089093;28;20131;-62
2022/02/12 12:28:40;;;;;;;13.77;3.10;;;8.10;87.00;;;;;;5071041;28;20048;-64
2022/02/12 12:31:08;;;;;;;9.63;2.55;;;8.20;88.20;;;;;;5090004;28;20056;-63
2022/02/12 12:33:44;;;;;;;7.07;2.75;;;8.20;90.00;;;;;;5093791;28;20146;-64
2022/02/12 12:36:17;;;;;;;15.23;3.67;;;8.30;88.10;;;;;;5088844;28;20048;-63
2022/02/12 12:38:50;;;;;;;9.70;2.00;;;8.30;89.30;;;;;;5062234;28;20080;-64
2022/02/12 12:41:31;;;;;;;14.38;2.33;;;8.30;87.10;;;;;;5089213;28;20076;-63
2022/02/12 12:44:12;;;;;;;10.02;1.92;;;8.20;87.00;;;;;;5081848;28;20052;-64
2022/02/12 12:46:42;;;;;;;11.70;2.95;;;8.20;86.30;;;;;;5091889;28;20062;-65
2022/02/12 12:49:09;;;;;;;8.80;2.28;;;8.20;87.70;;;;;;5094856;28;20052;-64
2022/02/12 12:51:37;;;;;;;11.30;2.47;;;8.20;87.80;;;;;;5092175;28;20076;-62
2022/02/12 12:54:04;;;;;;;9.80;2.30;;;8.30;87.40;;;;;;5091716;28;20060;-64
2022/02/12 12:56:31;;;;;;;9.05;2.05;;;8.30;88.80;;;;;;5083861;28;20053;-64
2022/02/12 12:59:06;;;;;;;10.05;2.47;;;8.30;87.10;;;;;;5077574;28;20072;-64
2022/02/12 13:02:04;;;;;;;9.18;2.20;;;8.30;88.20;;;;;;5074468;28;20189;-64
2022/02/12 13:04:45;;;;;;;6.53;1.60;;;8.40;87.80;;;;;;5079867;28;20040;-63
2022/02/12 13:07:15;;;;;;;9.88;2.63;;;8.40;87.50;;;;;;5067475;28;20529;-69
2022/02/12 13:09:45;;;;;;;12.43;3.20;;;8.40;88.50;;;;;;5079840;28;20349;-63